createdAt,value
2023-04-17T00:02:26.693Z,15.90
2023-04-17T00:04:54.221Z,14.70
2023-04-17T00:07:22.956Z,13.65
2023-04-17T00:09:49.968Z,15.67
2023-04-17T00:12:16.779Z,15.35
2023-04-17T00:14:43.285Z,13.65
2023-04-17T00:17:09.736Z,13.05
2023-04-17T00:19:36.208Z,12.95
2023-04-17T00:22:02.680Z,14.50
2023-04-17T00:24:29.102Z,15.85
2023-04-17T00:26:57.214Z,13.57
2023-04-17T00:29:23.804Z,13.32
2023-04-17T00:31:50.367Z,15.23
2023-04-17T00:34:16.883Z,15.07
2023-04-17T00:36:43.388Z,14.55
2023-04-17T00:39:10.255Z,16.20
2023-04-17T00:41:36.975Z,13.70
2023-04-17T00:44:03.519Z,12.05
2023-04-17T00:46:31.334Z,14.93
2023-04-17T00:48:57.825Z,15.60
2023-04-17T00:51:24.674Z,14.10
2023-04-17T00:53:51.817Z,18.10
2023-04-17T00:56:18.419Z,15.20
2023-04-17T00:58:45.124Z,16.57
2023-04-17T01:01:11.780Z,14.98
2023-04-17T01:03:38.528Z,13.18
2023-04-17T01:06:05.768Z,20.27
2023-04-17T01:08:40.777Z,15.50
2023-04-17T01:11:07.340Z,15.17
2023-04-17T01:13:33.968Z,15.40
2023-04-17T01:16:00.498Z,16.35
2023-04-17T01:18:27.015Z,15.65
2023-04-17T01:20:53.554Z,15.27
2023-04-17T01:23:19.972Z,19.20
2023-04-17T01:25:46.464Z,14.07
2023-04-17T01:28:12.979Z,16.90
2023-04-17T01:30:39.460Z,15.85
2023-04-17T01:33:05.947Z,16.38
2023-04-17T01:35:32.545Z,16.17
2023-04-17T01:37:59.085Z,15.90
2023-04-17T01:40:25.647Z,16.83
2023-04-17T01:42:52.126Z,16.55
2023-04-17T01:45:18.690Z,17.27
2023-04-17T01:47:45.459Z,18.27
2023-04-17T01:50:12.770Z,17.58
2023-04-17T01:52:39.962Z,18.50
2023-04-17T01:55:06.845Z,16.15
2023-04-17T01:57:33.415Z,18.55
2023-04-17T01:59:59.900Z,17.50
2023-04-17T02:02:26.457Z,20.83
2023-04-17T02:04:53.124Z,19.05
2023-04-17T02:07:19.654Z,18.88
2023-04-17T02:09:46.113Z,17.55
2023-04-17T02:12:12.584Z,17.67
2023-04-17T02:14:39.261Z,18.05
2023-04-17T02:17:05.879Z,21.40
2023-04-17T02:19:32.451Z,19.15
2023-04-17T02:21:58.962Z,20.17
2023-04-17T02:24:25.770Z,18.27
2023-04-17T02:26:52.308Z,19.70
2023-04-17T02:29:18.858Z,21.45
2023-04-17T02:31:45.422Z,18.77
2023-04-17T02:34:12.006Z,20.45
2023-04-17T02:36:38.510Z,23.70
2023-04-17T02:39:05.566Z,19.48
2023-04-17T02:41:32.211Z,20.08
2023-04-17T02:44:00.872Z,19.70
2023-04-17T02:46:27.513Z,19.80
2023-04-17T02:48:54.052Z,18.63
2023-04-17T02:51:20.896Z,21.00
2023-04-17T02:53:49.123Z,20.92
2023-04-17T02:56:15.791Z,18.35
2023-04-17T02:58:44.911Z,18.55
2023-04-17T03:01:11.823Z,22.03
2023-04-17T03:03:42.035Z,20.23
2023-04-17T03:06:09.925Z,20.50
2023-04-17T03:08:38.659Z,20.13
2023-04-17T03:11:06.291Z,18.65
2023-04-17T03:13:36.413Z,22.90
2023-04-17T03:16:04.640Z,18.75
2023-04-17T03:18:31.568Z,19.02
2023-04-17T03:20:58.542Z,19.63
2023-04-17T03:23:24.996Z,19.25
2023-04-17T03:25:51.558Z,21.37
2023-04-17T03:28:18.530Z,17.73
2023-04-17T03:30:45.083Z,20.20
2023-04-17T03:33:11.489Z,19.35
2023-04-17T03:35:38.116Z,19.23
2023-04-17T03:38:04.670Z,19.03
2023-04-17T03:40:33.561Z,18.92
2023-04-17T03:43:01.445Z,18.63
2023-04-17T03:45:27.992Z,18.88
2023-04-17T03:47:54.600Z,16.90
2023-04-17T03:50:21.132Z,19.67
2023-04-17T03:52:47.625Z,17.42
2023-04-17T03:55:14.216Z,16.90
2023-04-17T03:57:41.032Z,18.02
2023-04-17T04:00:10.481Z,19.25
2023-04-17T04:02:37.610Z,17.97
2023-04-17T04:05:04.611Z,15.70
2023-04-17T04:07:31.119Z,16.67
2023-04-17T04:09:57.586Z,16.05
2023-04-17T04:12:24.108Z,17.45
2023-04-17T04:14:50.597Z,16.67
2023-04-17T04:17:17.160Z,16.13
2023-04-17T04:19:43.976Z,16.95
2023-04-17T04:22:13.559Z,16.85
2023-04-17T04:24:40.836Z,16.45
2023-04-17T04:27:07.519Z,16.87
2023-04-17T04:29:35.145Z,14.60
2023-04-17T04:32:02.368Z,14.48
2023-04-17T04:34:30.074Z,17.70
2023-04-17T04:36:57.480Z,21.63
2023-04-17T04:39:24.017Z,16.10
2023-04-17T04:41:51.681Z,12.93
2023-04-17T04:44:19.031Z,17.05
2023-04-17T04:46:46.548Z,14.43
2023-04-17T04:49:13.565Z,16.95
2023-04-17T04:51:40.470Z,17.33
2023-04-17T04:54:06.898Z,17.73
2023-04-17T04:56:33.418Z,17.45
2023-04-17T04:59:00.177Z,14.98
2023-04-17T05:01:27.997Z,17.15
2023-04-17T05:03:54.953Z,15.60
2023-04-17T05:06:21.700Z,16.23
2023-04-17T05:08:48.451Z,14.80
2023-04-17T05:11:15.430Z,15.10
2023-04-17T05:13:41.948Z,15.57
2023-04-17T05:16:08.440Z,17.40
2023-04-17T05:18:35.034Z,15.60
2023-04-17T05:21:01.651Z,13.32
2023-04-17T05:23:28.360Z,14.70
2023-04-17T05:25:54.955Z,16.30
2023-04-17T05:28:21.540Z,16.57
2023-04-17T05:30:48.105Z,17.10
2023-04-17T05:33:14.578Z,18.58
2023-04-17T05:35:41.166Z,17.25
2023-04-17T05:38:08.083Z,18.40
2023-04-17T05:40:34.694Z,15.23
2023-04-17T05:43:09.249Z,19.15
2023-04-17T05:45:35.763Z,18.33
2023-04-17T05:48:02.591Z,17.02
2023-04-17T05:50:29.182Z,19.10
2023-04-17T05:52:56.552Z,18.57
2023-04-17T05:55:23.277Z,17.55
2023-04-17T05:57:49.790Z,20.38
2023-04-17T06:00:16.648Z,21.27
2023-04-17T06:02:43.763Z,23.50
2023-04-17T06:05:10.982Z,19.87
2023-04-17T06:07:40.469Z,21.77
2023-04-17T06:10:08.910Z,20.25
2023-04-17T06:12:36.324Z,21.65
2023-04-17T06:15:04.155Z,19.98
2023-04-17T06:17:31.642Z,22.33
2023-04-17T06:19:58.157Z,22.90
2023-04-17T06:22:24.722Z,24.08
2023-04-17T06:24:51.210Z,20.65
2023-04-17T06:27:17.681Z,25.48
2023-04-17T06:29:44.200Z,20.20
2023-04-17T06:32:10.708Z,19.05
2023-04-17T06:34:46.075Z,22.35
2023-04-17T06:37:22.779Z,21.75
2023-04-17T06:39:49.423Z,19.70
2023-04-17T06:42:18.905Z,22.47
2023-04-17T06:44:45.501Z,18.08
2023-04-17T06:47:11.975Z,18.95
2023-04-17T06:49:38.507Z,19.35
2023-04-17T06:52:05.255Z,19.23
2023-04-17T06:54:31.844Z,18.03
2023-04-17T06:56:58.315Z,19.13
2023-04-17T06:59:24.844Z,19.92
2023-04-17T07:01:51.448Z,19.00
2023-04-17T07:04:18.138Z,19.25
2023-04-17T07:06:44.707Z,20.37
2023-04-17T07:09:11.260Z,20.42
2023-04-17T07:11:37.882Z,20.38
2023-04-17T07:14:04.432Z,20.45
2023-04-17T07:16:31.006Z,20.40
2023-04-17T07:18:57.732Z,19.03
2023-04-17T07:21:24.253Z,18.17
2023-04-17T07:23:50.798Z,18.45
2023-04-17T07:26:17.248Z,18.77
2023-04-17T07:28:43.808Z,18.48
2023-04-17T07:31:10.316Z,18.20
2023-04-17T07:33:40.358Z,17.65
2023-04-17T07:36:09.932Z,19.08
2023-04-17T07:38:38.619Z,21.25
2023-04-17T07:41:06.951Z,20.02
2023-04-17T07:43:33.446Z,19.37
2023-04-17T07:45:59.985Z,21.20
2023-04-17T07:48:27.309Z,20.48
2023-04-17T07:50:53.819Z,21.65
2023-04-17T07:53:22.244Z,20.15
2023-04-17T07:55:49.126Z,20.50
2023-04-17T07:58:16.428Z,17.55
2023-04-17T08:00:43.367Z,18.73
2023-04-17T08:03:10.106Z,18.20
2023-04-17T08:05:36.802Z,19.52
2023-04-17T08:08:04.748Z,19.10
2023-04-17T08:10:31.325Z,17.55
2023-04-17T08:12:57.794Z,17.25
2023-04-17T08:15:24.449Z,20.35
2023-04-17T08:17:51.010Z,23.35
2023-04-17T08:20:18.404Z,19.33
2023-04-17T08:22:46.299Z,17.88
2023-04-17T08:25:13.550Z,18.42
2023-04-17T08:27:41.767Z,18.63
2023-04-17T08:30:13.313Z,21.42
2023-04-17T08:32:48.567Z,17.87
2023-04-17T08:35:15.834Z,17.58
2023-04-17T08:37:44.288Z,17.67
2023-04-17T08:40:12.116Z,20.40
2023-04-17T08:42:41.654Z,19.33
2023-04-17T08:45:10.993Z,19.50
2023-04-17T08:47:42.355Z,21.33
2023-04-17T08:50:11.051Z,17.63
2023-04-17T08:52:42.579Z,18.73
2023-04-17T08:55:12.005Z,15.38
2023-04-17T08:57:58.708Z,15.07
2023-04-17T09:00:29.247Z,16.17
2023-04-17T09:02:57.649Z,20.25
2023-04-17T09:05:26.332Z,17.00
2023-04-17T09:08:17.600Z,17.75
2023-04-17T09:10:46.091Z,16.93
2023-04-17T09:13:16.457Z,19.05
2023-04-17T09:15:44.771Z,16.58
2023-04-17T09:18:31.061Z,16.15
2023-04-17T09:20:59.762Z,17.92
2023-04-17T09:23:31.640Z,19.03
2023-04-17T09:26:09.243Z,16.95
2023-04-17T09:28:36.976Z,15.75
2023-04-17T09:31:28.236Z,15.10
2023-04-17T09:34:03.209Z,15.73
2023-04-17T09:36:31.903Z,14.27
2023-04-17T09:39:04.391Z,14.32
2023-04-17T09:41:33.094Z,14.77
2023-04-17T09:44:01.974Z,13.55
2023-04-17T09:46:41.189Z,14.80
2023-04-17T09:49:27.944Z,13.77
2023-04-17T09:51:55.122Z,14.65
2023-04-17T09:54:23.356Z,14.45
2023-04-17T09:56:55.697Z,12.95
2023-04-17T09:59:24.824Z,14.02
2023-04-17T10:01:54.136Z,14.07
2023-04-17T10:04:22.274Z,11.88
2023-04-17T10:06:49.758Z,15.55
2023-04-17T10:09:16.510Z,12.98
2023-04-17T10:11:46.128Z,15.32
2023-04-17T10:14:24.540Z,15.87
2023-04-17T10:16:51.112Z,13.38
2023-04-17T10:19:36.476Z,13.23
2023-04-17T10:22:18.113Z,14.10
2023-04-17T10:24:47.220Z,12.73
2023-04-17T10:27:28.892Z,11.53
2023-04-17T10:29:59.791Z,12.93
2023-04-17T10:32:28.617Z,13.80
2023-04-17T10:34:58.010Z,13.25
2023-04-17T10:37:47.678Z,12.68
2023-04-17T10:40:29.490Z,14.17
2023-04-17T10:43:12.270Z,12.40
2023-04-17T10:45:58.221Z,14.10
2023-04-17T10:48:31.066Z,13.38
2023-04-17T10:50:57.643Z,14.45
2023-04-17T10:53:42.250Z,15.97
2023-04-17T10:56:10.396Z,13.82
2023-04-17T10:58:56.079Z,14.32
2023-04-17T11:01:26.829Z,13.13
2023-04-17T11:03:54.861Z,12.95
2023-04-17T11:06:22.048Z,13.70
2023-04-17T11:08:49.812Z,13.90
2023-04-17T11:11:23.595Z,12.65
2023-04-17T11:14:05.827Z,12.68
2023-04-17T11:16:32.484Z,12.68
2023-04-17T11:18:59.065Z,12.37
2023-04-17T11:21:26.432Z,10.07
2023-04-17T11:23:53.038Z,10.43
2023-04-17T11:26:20.859Z,11.60
2023-04-17T11:28:48.040Z,9.93
2023-04-17T11:31:15.962Z,11.93
2023-04-17T11:33:44.575Z,10.35
2023-04-17T11:36:11.361Z,10.35
2023-04-17T11:38:47.299Z,11.27
2023-04-17T11:41:13.866Z,13.18
2023-04-17T11:43:40.447Z,10.70
2023-04-17T11:46:06.982Z,11.18
2023-04-17T11:48:34.856Z,11.02
2023-04-17T11:51:04.572Z,10.80
2023-04-17T11:53:34.158Z,10.18
2023-04-17T11:56:18.311Z,11.60
2023-04-17T11:59:06.074Z,9.90
2023-04-17T12:01:32.569Z,9.13
2023-04-17T12:03:59.768Z,9.90
2023-04-17T12:06:37.003Z,10.10
2023-04-17T12:09:03.499Z,8.77
2023-04-17T12:11:33.359Z,9.15
2023-04-17T12:14:01.133Z,9.05
2023-04-17T12:16:29.361Z,9.63
2023-04-17T12:18:56.709Z,9.10
2023-04-17T12:21:24.046Z,8.50
2023-04-17T12:23:51.051Z,9.23
2023-04-17T12:26:17.632Z,8.00
2023-04-17T12:28:44.278Z,8.57
2023-04-17T12:31:11.026Z,8.57
2023-04-17T12:33:37.702Z,7.90
2023-04-17T12:36:05.323Z,8.40
2023-04-17T12:38:31.930Z,9.45
2023-04-17T12:40:58.574Z,8.43
2023-04-17T12:43:25.384Z,7.85
2023-04-17T12:45:54.994Z,9.40
2023-04-17T12:48:21.566Z,7.90
2023-04-17T12:50:48.053Z,8.55
2023-04-17T12:53:15.630Z,8.55
2023-04-17T12:55:43.761Z,8.60
2023-04-17T12:58:11.887Z,8.17
2023-04-17T13:00:40.259Z,8.88
2023-04-17T13:03:06.905Z,8.60
2023-04-17T13:05:33.532Z,8.02
2023-04-17T13:08:00.201Z,8.20
2023-04-17T13:10:26.994Z,7.50
2023-04-17T13:12:53.809Z,8.80
2023-04-17T13:15:20.435Z,8.52
2023-04-17T13:17:46.940Z,8.35
2023-04-17T13:20:13.894Z,8.50
2023-04-17T13:22:40.456Z,8.20
2023-04-17T13:25:07.361Z,7.30
2023-04-17T13:27:33.902Z,7.50
2023-04-17T13:30:00.740Z,6.95
2023-04-17T13:32:27.424Z,6.43
2023-04-17T13:34:53.980Z,7.80
2023-04-17T13:37:20.533Z,8.32
2023-04-17T13:39:47.099Z,7.65
2023-04-17T13:42:16.461Z,6.95
2023-04-17T13:44:43.086Z,8.30
2023-04-17T13:47:09.718Z,6.37
2023-04-17T13:49:36.463Z,6.47
2023-04-17T13:52:03.713Z,7.47
2023-04-17T13:54:30.369Z,8.40
2023-04-17T13:56:57.427Z,7.97
2023-04-17T13:59:24.208Z,6.03
2023-04-17T14:01:51.448Z,6.20
2023-04-17T14:04:18.317Z,7.25
2023-04-17T14:06:47.065Z,6.40
2023-04-17T14:09:13.817Z,7.30
2023-04-17T14:11:41.060Z,8.23
2023-04-17T14:14:07.534Z,7.43
2023-04-17T14:16:34.164Z,7.85
2023-04-17T14:19:09.682Z,6.80
2023-04-17T14:21:39.626Z,7.05
2023-04-17T14:24:06.685Z,6.03
2023-04-17T14:26:33.365Z,5.63
2023-04-17T14:28:59.951Z,6.82
2023-04-17T14:31:26.565Z,6.40
2023-04-17T14:33:53.011Z,7.03
2023-04-17T14:36:19.562Z,7.17
2023-04-17T14:38:49.935Z,6.50
2023-04-17T14:41:19.943Z,5.70
2023-04-17T14:43:46.407Z,6.18
2023-04-17T14:46:13.015Z,6.20
2023-04-17T14:48:54.196Z,6.13
2023-04-17T14:51:23.646Z,5.60
2023-04-17T14:53:51.272Z,5.97
2023-04-17T14:56:18.041Z,5.55
2023-04-17T14:58:44.585Z,5.53
2023-04-17T15:01:12.309Z,5.50
2023-04-17T15:03:39.078Z,6.15
2023-04-17T15:06:05.817Z,6.03
2023-04-17T15:08:32.374Z,6.68
2023-04-17T15:10:59.066Z,5.65
2023-04-17T15:13:26.733Z,5.50
2023-04-17T15:15:53.469Z,5.90
2023-04-17T15:18:20.063Z,5.53
2023-04-17T15:20:46.706Z,6.32
2023-04-17T15:23:13.288Z,5.90
2023-04-17T15:25:40.167Z,6.70
2023-04-17T15:28:07.003Z,5.47
2023-04-17T15:30:36.087Z,5.30
2023-04-17T15:33:02.760Z,5.57
2023-04-17T15:35:29.358Z,5.38
2023-04-17T15:37:55.887Z,5.67
2023-04-17T15:40:22.814Z,5.35
2023-04-17T15:42:49.639Z,5.60
2023-04-17T15:45:16.201Z,5.55
2023-04-17T15:47:42.726Z,5.90
2023-04-17T15:50:09.871Z,5.43
2023-04-17T15:52:36.336Z,5.10
2023-04-17T15:55:02.860Z,6.10
2023-04-17T15:57:29.360Z,7.22
2023-04-17T15:59:56.064Z,5.18
2023-04-17T16:02:22.762Z,5.00
2023-04-17T16:04:49.441Z,5.40
2023-04-17T16:07:16.565Z,5.20
2023-04-17T16:09:44.602Z,5.18
2023-04-17T16:12:11.123Z,5.15
2023-04-17T16:14:38.355Z,4.67
2023-04-17T16:17:04.879Z,4.55
2023-04-17T16:19:32.173Z,5.32
2023-04-17T16:21:59.354Z,5.10
2023-04-17T16:24:26.259Z,5.05
2023-04-17T16:26:58.308Z,4.67
2023-04-17T16:29:25.945Z,4.47
2023-04-17T16:31:54.512Z,4.38
2023-04-17T16:34:21.449Z,5.13
2023-04-17T16:36:48.620Z,5.78
2023-04-17T16:39:15.351Z,4.30
2023-04-17T16:41:42.139Z,4.28
2023-04-17T16:44:08.612Z,4.55
2023-04-17T16:46:45.659Z,5.13
2023-04-17T16:49:22.481Z,4.68
2023-04-17T16:51:49.016Z,4.70
2023-04-17T16:54:15.651Z,4.60
2023-04-17T16:56:42.801Z,4.60
2023-04-17T16:59:09.299Z,4.95
2023-04-17T17:01:36.023Z,4.35
2023-04-17T17:04:02.527Z,4.80
2023-04-17T17:06:29.753Z,4.35
2023-04-17T17:08:56.343Z,5.13
2023-04-17T17:11:23.355Z,4.63
2023-04-17T17:13:51.238Z,4.18
2023-04-17T17:16:19.436Z,4.40
2023-04-17T17:18:47.211Z,3.65
2023-04-17T17:21:14.557Z,3.80
2023-04-17T17:23:41.692Z,4.55
2023-04-17T17:26:08.486Z,4.45
2023-04-17T17:28:35.481Z,3.97
2023-04-17T17:31:03.817Z,4.88
2023-04-17T17:33:32.207Z,4.97
2023-04-17T17:35:59.364Z,4.55
2023-04-17T17:38:28.594Z,4.40
2023-04-17T17:40:58.726Z,4.03
2023-04-17T17:43:25.705Z,4.60
2023-04-17T17:45:52.563Z,4.90
2023-04-17T17:48:20.479Z,5.28
2023-04-17T17:50:47.519Z,5.53
2023-04-17T17:53:16.916Z,5.20
2023-04-17T17:55:51.601Z,5.05
2023-04-17T17:58:18.113Z,5.00
2023-04-17T18:00:44.701Z,4.32
2023-04-17T18:03:11.479Z,4.43
2023-04-17T18:05:38.164Z,4.90
2023-04-17T18:08:04.774Z,4.80
2023-04-17T18:10:31.305Z,4.68
2023-04-17T18:12:57.863Z,5.05
2023-04-17T18:15:24.478Z,5.32
2023-04-17T18:17:51.575Z,5.43
2023-04-17T18:20:18.328Z,4.50
2023-04-17T18:22:45.079Z,4.45
2023-04-17T18:25:11.837Z,4.85
2023-04-17T18:27:38.395Z,4.55
2023-04-17T18:30:06.607Z,4.23
2023-04-17T18:32:33.494Z,5.15
2023-04-17T18:35:00.784Z,4.50
2023-04-17T18:37:27.897Z,4.38
2023-04-17T18:39:54.716Z,5.60
2023-04-17T18:42:21.769Z,5.23
2023-04-17T18:44:48.417Z,5.25
2023-04-17T18:47:15.449Z,5.60
2023-04-17T18:49:42.038Z,5.88
2023-04-17T18:52:08.529Z,5.57
2023-04-17T18:54:35.303Z,5.73
2023-04-17T18:57:01.819Z,5.80
2023-04-17T18:59:28.394Z,6.85
2023-04-17T19:01:54.885Z,5.57
2023-04-17T19:04:21.773Z,5.88
2023-04-17T19:06:48.317Z,6.00
2023-04-17T19:09:14.809Z,6.13
2023-04-17T19:11:42.011Z,6.85
2023-04-17T19:14:08.568Z,5.88
2023-04-17T19:16:35.437Z,6.95
2023-04-17T19:19:05.682Z,6.60
2023-04-17T19:21:32.897Z,6.25
2023-04-17T19:23:59.537Z,6.85
2023-04-17T19:26:26.247Z,5.75
2023-04-17T19:28:52.877Z,6.72
2023-04-17T19:31:19.403Z,6.43
2023-04-17T19:33:46.215Z,6.28
2023-04-17T19:36:12.861Z,7.70
2023-04-17T19:38:39.578Z,6.22
2023-04-17T19:41:19.681Z,6.65
2023-04-17T19:43:51.513Z,6.03
2023-04-17T19:46:19.468Z,6.75
2023-04-17T19:48:46.998Z,7.25
2023-04-17T19:51:14.542Z,7.13
2023-04-17T19:53:44.237Z,7.25
2023-04-17T19:56:11.265Z,9.60
2023-04-17T19:58:38.472Z,7.47
2023-04-17T20:01:05.675Z,8.85
2023-04-17T20:03:32.833Z,8.40
2023-04-17T20:06:00.247Z,7.88
2023-04-17T20:08:26.960Z,9.80
2023-04-17T20:10:53.671Z,8.90
2023-04-17T20:13:20.251Z,9.90
2023-04-17T20:15:46.808Z,9.30
2023-04-17T20:18:13.502Z,9.65
2023-04-17T20:20:40.124Z,9.23
2023-04-17T20:23:06.706Z,9.40
2023-04-17T20:25:33.293Z,9.52
2023-04-17T20:28:02.566Z,9.10
2023-04-17T20:30:29.308Z,8.75
2023-04-17T20:32:56.241Z,9.37
2023-04-17T20:35:24.562Z,9.63
2023-04-17T20:37:51.716Z,11.82
2023-04-17T20:40:18.981Z,10.20
2023-04-17T20:42:46.378Z,9.55
2023-04-17T20:45:13.367Z,9.73
2023-04-17T20:47:55.472Z,10.02
2023-04-17T20:50:23.864Z,9.82
2023-04-17T20:52:50.527Z,8.88
2023-04-17T20:55:18.777Z,9.25
2023-04-17T20:57:45.956Z,9.33
2023-04-17T21:00:13.091Z,8.98
2023-04-17T21:02:39.644Z,9.23
2023-04-17T21:05:07.551Z,8.80
2023-04-17T21:07:34.552Z,9.35
2023-04-17T21:10:01.313Z,10.57
2023-04-17T21:12:28.142Z,8.88
2023-04-17T21:14:54.686Z,9.20
2023-04-17T21:17:21.180Z,9.05
2023-04-17T21:19:47.643Z,9.15
2023-04-17T21:22:14.091Z,9.00
2023-04-17T21:24:40.678Z,9.13
2023-04-17T21:27:07.192Z,8.98
2023-04-17T21:29:33.670Z,7.93
2023-04-17T21:32:00.355Z,8.25
2023-04-17T21:34:27.029Z,8.00
2023-04-17T21:36:54.526Z,6.68
2023-04-17T21:39:21.654Z,8.68
2023-04-17T21:41:48.685Z,8.43
2023-04-17T21:44:15.496Z,8.43
2023-04-17T21:46:45.370Z,9.77
2023-04-17T21:49:12.351Z,7.68
2023-04-17T21:51:39.106Z,8.18
2023-04-17T21:54:05.689Z,7.18
2023-04-17T21:56:32.258Z,8.95
2023-04-17T21:58:58.727Z,7.17
2023-04-17T22:01:25.328Z,8.25
2023-04-17T22:03:51.840Z,7.95
2023-04-17T22:06:18.468Z,7.55
2023-04-17T22:08:44.961Z,8.60
2023-04-17T22:11:11.467Z,8.20
2023-04-17T22:13:37.957Z,7.43
2023-04-17T22:16:04.671Z,8.27
2023-04-17T22:18:31.161Z,7.25
2023-04-17T22:21:35.477Z,7.18
2023-04-17T22:24:01.887Z,7.73
2023-04-17T22:26:47.183Z,7.75
2023-04-17T22:29:51.189Z,8.02
2023-04-17T22:32:54.944Z,6.45
2023-04-17T22:36:17.507Z,6.97
2023-04-17T22:39:02.490Z,7.13
2023-04-17T22:41:47.731Z,7.50
2023-04-17T22:44:32.805Z,7.78
2023-04-17T22:46:59.209Z,7.63
2023-04-17T22:49:25.619Z,7.65
2023-04-17T22:51:52.884Z,7.67
2023-04-17T22:54:23.096Z,7.90
2023-04-17T22:56:49.817Z,8.05
2023-04-17T22:59:16.235Z,7.82
2023-04-17T23:01:42.695Z,8.35
2023-04-17T23:04:10.278Z,8.83
2023-04-17T23:06:36.754Z,8.07
2023-04-17T23:09:04.766Z,8.63
2023-04-17T23:11:32.271Z,8.60
2023-04-17T23:13:58.845Z,9.82
2023-04-17T23:16:25.395Z,7.87
2023-04-17T23:18:52.153Z,7.38
2023-04-17T23:21:18.643Z,8.07
2023-04-17T23:23:45.335Z,8.02
2023-04-17T23:26:15.074Z,8.00
2023-04-17T23:28:41.660Z,8.17
2023-04-17T23:31:08.193Z,7.93
2023-04-17T23:33:34.821Z,8.10
2023-04-17T23:36:01.629Z,9.13
2023-04-17T23:38:28.095Z,9.35
2023-04-17T23:40:54.863Z,8.73
2023-04-17T23:43:21.298Z,9.43
2023-04-17T23:45:47.774Z,8.43
2023-04-17T23:48:14.290Z,9.23
2023-04-17T23:50:41.247Z,9.38
2023-04-17T23:53:07.806Z,7.70
2023-04-17T23:55:34.626Z,8.65
2023-04-17T23:58:01.212Z,8.35
